Flight Track Log - Related Links

Times and Time Zones

All times are in EDT time to prevent confusion due to time zone crossing. See the SWA1729 flight status page for this flight to view local times or setup timezone preferences in your user account.

Time Position Orientation Groundspeed Altitude Reporting Facility
EDT Latitude Longitude Course Direction KTS MPH feet Rate Location/Type
Sat 11:02:00 PM 36.0930 -115.2372 281° West  Level FlightAware Approximate
Sat 11:03:00 PM 36.0975 -115.2846 202° Southwest  Level FlightAware Approximate
Sat 11:04:00 PM 36.0606 -115.3031 202° Southwest  Level FlightAware Approximate
Sat 11:05:00 PM 36.0236 -115.3216 202° Southwest  Level FlightAware Approximate
Sat 11:06:00 PM 35.9866 -115.3400 202° Southwest  Level FlightAware Approximate
Sat 11:07:00 PM 35.9496 -115.3585 202° Southwest  Level FlightAware Approximate
Sat 11:08:00 PM 35.9126 -115.3770 202° Southwest  Level FlightAware Approximate
Sat 11:09:00 PM 35.8752 -115.3727 161° South  Level FlightAware Approximate
Sat 11:10:00 PM 35.8375 -115.3565 161° South  Level FlightAware Approximate
Sat 11:11:00 PM 35.7998 -115.3403 161° South  Level FlightAware Approximate
Sat 11:12:00 PM 35.7621 -115.3242 161° South  Level FlightAware Approximate
Sat 11:13:00 PM 35.7244 -115.3080 161° South  Level FlightAware Approximate
Sat 11:14:00 PM 35.6867 -115.2919 161° South  Level FlightAware Approximate
Sat 11:15:00 PM 35.6522 -115.2978 219° Southwest  Level FlightAware Approximate
Sat 11:16:00 PM 35.6335 -115.3373 225° Southwest  Level FlightAware Approximate
Sat 11:17:00 PM 35.6055 -115.3723 225° Southwest  Level FlightAware Approximate
Sat 11:18:00 PM 35.5769 -115.4064 219° Southwest  Level FlightAware Approximate
Sat 11:19:00 PM 35.5467 -115.4383 231° Southwest  Level FlightAware Approximate
Sat 11:20:00 PM 35.5214 -115.4762 231° Southwest  Level FlightAware Approximate
Sat 11:21:00 PM 35.4961 -115.5141 231° Southwest  Level FlightAware Approximate
Sat 11:22:00 PM 35.4700 -115.5511 227° Southwest  Level FlightAware Approximate
Sat 11:23:00 PM 35.4430 -115.5872 227° Southwest  Level FlightAware Approximate
Sat 11:24:00 PM 35.4199 -115.6269 238° Southwest  Level FlightAware Approximate
Sat 11:25:00 PM 35.3986 -115.6681 219° Southwest  Level FlightAware Approximate
Sat 11:26:00 PM 35.3677 -115.6990 219° Southwest  Level FlightAware Approximate
Sat 11:27:00 PM 35.3368 -115.7299 219° Southwest  Level FlightAware Approximate
Sat 11:28:00 PM 35.3058 -115.7608 219° Southwest  Level FlightAware Approximate
Sat 11:29:00 PM 35.2781 -115.7959 227° Southwest  Level FlightAware Approximate
Sat 11:30:00 PM 35.2511 -115.8319 227° Southwest  Level FlightAware Approximate
Sat 11:31:00 PM 35.2241 -115.8679 227° Southwest  Level FlightAware Approximate
Sat 11:32:00 PM 35.1971 -115.9038 227° Southwest  Level FlightAware Approximate
Sat 11:33:00 PM 35.1701 -115.9398 227° Southwest  Level FlightAware Approximate
Sat 11:34:00 PM 35.1431 -115.9756 227° Southwest  Level FlightAware Approximate
Sat 11:35:00 PM 35.1161 -116.0115 227° Southwest  Level FlightAware Approximate
Sat 11:36:00 PM 35.0890 -116.0474 227° Southwest  Level FlightAware Approximate
Sat 11:37:00 PM 35.0620 -116.0832 227° Southwest  Level FlightAware Approximate
Sat 11:38:00 PM 35.0349 -116.1190 227° Southwest  Level FlightAware Approximate
Sat 11:39:00 PM 35.0078 -116.1548 227° Southwest  Level FlightAware Approximate
Sat 11:40:00 PM 34.9807 -116.1906 227° Southwest  Level FlightAware Approximate
Sat 11:41:00 PM 34.9536 -116.2263 227° Southwest  Level FlightAware Approximate
Sat 11:42:00 PM 34.9265 -116.2620 227° Southwest  Level FlightAware Approximate
Sat 11:43:00 PM 34.8994 -116.2977 227° Southwest  Level FlightAware Approximate
Sat 11:44:00 PM 34.8723 -116.3334 227° Southwest  Level FlightAware Approximate
Sat 11:45:00 PM 34.8451 -116.3690 227° Southwest  Level FlightAware Approximate
Sat 11:46:00 PM 34.8180 -116.4046 227° Southwest  Level FlightAware Approximate
Sat 11:47:00 PM 34.7908 -116.4402 227° Southwest  Level FlightAware Approximate
Sat 11:48:00 PM 34.7610 -116.4724 219° Southwest  Level FlightAware Approximate
Sat 11:49:00 PM 34.6947 -116.5387 219° Southwest  Level FlightAware Approximate
Sat 11:50:00 PM 34.6285 -116.6049 219° Southwest  Level FlightAware Approximate
Sat 11:51:00 PM 34.5622 -116.6711 220° Southwest  Level FlightAware Approximate
Sat 11:52:00 PM 34.4960 -116.7373 220° Southwest  Level FlightAware Approximate
Sat 11:53:00 PM 34.4271 -116.7986 209° Southwest  Level FlightAware Approximate
Sat 11:54:00 PM 34.3577 -116.8590 220° Southwest  Level FlightAware Approximate
Sat 11:55:00 PM 34.2901 -116.9228 215° Southwest  Level FlightAware Approximate
Sat 11:56:00 PM 34.2201 -116.9828 215° Southwest  Level FlightAware Approximate
Sat 11:56:54 PM 36.0758 -115.1764 270° West 237 273 2,900  Level Los Angeles Center
Sat 11:57:00 PM 34.1529 -117.0471 220° Southwest  Level FlightAware Approximate
Sat 11:57:07 PM 36.0764 -115.1894 273° West 208 239 3,500  Level Los Angeles Center
Sat 11:58:00 PM 34.0983 -117.1201 239° Southwest  Level FlightAware Approximate
Sat 11:58:05 PM 36.0636 -115.2522 256° West 221 254 5,700  Level Los Angeles Center
Sat 11:59:00 PM 34.0540 -117.2088 239° Southwest  Level FlightAware Approximate
Sat 11:59:06 PM 35.9928 -115.2933 205° Southwest 272 313 7,900  Level Los Angeles Center
Sun 12:00:00 AM 34.0333 -117.3015 270° West  Level FlightAware Approximate
Sun 12:00:07 AM 35.9142 -115.3092 189° South 286 329 10,500  Level Los Angeles Center
Sun 12:01:00 AM 34.0266 -117.4035 248° West  Level FlightAware Approximate
Sun 12:01:08 AM 35.8208 -115.3131 182° South 337 388 12,200  Level Los Angeles Center
Sun 12:02:00 AM 34.0167 -117.5046 270° West  Level FlightAware Approximate
Sun 12:02:09 AM 35.7206 -115.3000 174° South 363 418 14,500  Level Los Angeles Center
Sun 12:03:10 AM 35.6361 -115.3503 206° Southwest 360 414 16,800 2,016 Climbing Los Angeles Center
Sun 12:04:11 AM 35.5658 -115.4436 227° Southwest 368 423 18,600 1,967 Climbing Los Angeles Center
Sun 12:05:12 AM 35.4875 -115.5339 223° Southwest 381 438 20,800 1,967 Climbing Los Angeles Center
Sun 12:06:13 AM 35.4114 -115.6211 223° Southwest 381 438 22,600 1,672 Climbing Los Angeles Center
Sun 12:07:14 AM 35.3331 -115.7142 224° Southwest 390 449 24,200 1,623 Climbing Los Angeles Center
Sun 12:08:15 AM 35.2528 -115.8081 224° Southwest 393 452 25,900 1,525 Climbing Los Angeles Center
Sun 12:09:16 AM 35.1697 -115.9047 224° Southwest 406 467 27,300 1,033 Climbing Los Angeles Center
Sun 12:10:17 AM 35.0842 -116.0022 223° Southwest 417 480 28,000 344 Climbing Los Angeles Center
Sun 12:11:18 AM 34.9975 -116.1025 223° Southwest 423 487 28,000  Level Los Angeles Center
Sun 12:12:19 AM 34.8892 -116.2258 223° Southwest 436 502 28,000  Level Los Angeles Center
Sun 12:13:20 AM 34.7989 -116.3250 222° Southwest 439 505 28,000  Level Los Angeles Center
Sun 12:14:21 AM 34.7192 -116.4183 224° Southwest 420 483 28,000  Level Los Angeles Center
Sun 12:15:22 AM 34.6375 -116.5117 223° Southwest 404 465 28,000  Level Los Angeles Center
Sun 12:16:23 AM 34.5556 -116.6050 223° Southwest 404 465 28,000  Level Los Angeles Center
Sun 12:17:24 AM 34.4731 -116.6981 223° Southwest 404 465 28,000 -545 Level Los Angeles Center
Sun 12:18:24 AM 34.3903 -116.7900 223° Southwest 402 463 26,900 -1,785 Descending Los Angeles Center
Sun 12:19:25 AM 34.3061 -116.8842 223° Southwest 408 470 24,400 -2,557 Descending Los Angeles Center
Sun 12:20:26 AM 34.2169 -116.9858 223° Southwest 401 461 21,700 -2,016 Descending Los Angeles Center
Sun 12:21:27 AM 34.1700 -117.0906 242° Southwest 372 428 20,300 -1,328 Descending Los Angeles Center
Sun 12:22:28 AM 34.1983 -117.1833 290° West 340 391 19,000 -639 Descending Los Angeles Center
Sun 12:23:29 AM 34.1875 -117.2856 263° West 344 396 19,000 -590 Level Los Angeles Center
Sun 12:24:30 AM 34.0944 -117.3583 213° Southwest 334 384 17,800 -1,226 Descending Los Angeles Center
Sun 12:25:02 AM 34.0500 -117.3833 205° Southwest 329 379 17,100 -1,500 Descending Southern California TRACON
Sun 12:26:02 AM 33.9833 -117.4500 220° Southwest 327 376 15,500 -1,650 Descending Southern California TRACON
Sun 12:27:02 AM 33.9667 -117.5333 256° West 312 359 13,800 -1,750 Descending Southern California TRACON
Sun 12:28:02 AM 33.9833 -117.6333 281° West 329 379 12,000 -1,579 Descending Southern California TRACON
Sun 12:29:34 AM 33.9994 -117.7628 279° West 280 322 9,800 -1,608 Descending Los Angeles Center
Sun 12:30:35 AM 33.9911 -117.8544 264° West 274 315 7,900 -1,623 Descending Los Angeles Center
Sun 12:31:36 AM 33.9839 -117.9450 265° West 274 315 6,500 -984 Descending Los Angeles Center
Sun 12:32:37 AM 33.9903 -118.0283 275° West 258 297 5,900 -446 Descending Los Angeles Center
Sun 12:33:37 AM 33.9822 -118.1058 263° West 239 275 5,600 -645 Descending Los Angeles Center
Sun 12:34:38 AM 33.9753 -118.1736 263° West 214 246 4,600 -1,033 Descending Los Angeles Center
Sun 12:35:39 AM 33.9692 -118.2369 263° West 199 229 3,500 -1,377 Descending Los Angeles Center
Sun 12:36:40 AM 33.9628 -118.3019 263° West 177 204 1,800 -1,230 Descending Los Angeles Center
Sun 12:37:41 AM 33.9578 -118.3528 263° West 164 189 1,000 -738 Descending Los Angeles Center
Sun 12:38:42 AM 33.9533 -118.3986 263° West 150 173 300 -689 Descending Los Angeles Center
Sun 12:40:00 AM 33.9333 -118.4000 259° West  Level FlightAware Approximate

Login

Don't have an account? Register now (free) for customized features, flight alerts, and more!